Time;durP1;ratioP1;P1;durP2;ratioP2;P2;SDS_P1;SDS_P2;PMS_P1;PMS_P2;Temp;Humidity;BMP_temperature;BMP_pressure;BME280_temperature;BME280_humidity;BME280_pressure;Samples;Min_cycle;Max_cycle;Signal;HPM_P1;HPM_P2
2022/07/30 00:00:34;;;;;;;8.07;5.77;;;19.70;99.90;;;;;;5010079;28;20715;-53
2022/07/30 00:03:01;;;;;;;8.17;6.07;;;19.70;99.90;;;;;;5013436;28;20211;-55
2022/07/30 00:05:28;;;;;;;10.93;6.07;;;19.60;99.90;;;;;;5013972;28;20233;-53
2022/07/30 00:07:58;;;;;;;9.43;5.43;;;19.60;99.90;;;;;;5020027;28;20220;-54
2022/07/30 00:10:26;;;;;;;8.17;5.73;;;19.60;99.90;;;;;;5014037;28;20292;-54
2022/07/30 00:12:53;;;;;;;7.90;6.07;;;19.30;99.90;;;;;;5001463;28;20204;-55
2022/07/30 00:15:20;;;;;;;11.07;6.43;;;19.30;99.90;;;;;;5010812;28;20232;-54
2022/07/30 00:17:47;;;;;;;9.20;6.20;;;19.10;99.90;;;;;;5016632;28;20208;-54
2022/07/30 00:20:15;;;;;;;11.13;6.43;;;19.00;99.90;;;;;;5047774;28;20596;-53
2022/07/30 00:22:44;;;;;;;12.60;6.00;;;19.10;99.90;;;;;;5013769;28;20588;-53
2022/07/30 00:25:11;;;;;;;11.07;6.20;;;19.00;99.90;;;;;;5015079;28;20216;-54
2022/07/30 00:27:38;;;;;;;10.63;6.43;;;19.10;99.90;;;;;;5015717;28;20723;-54
2022/07/30 00:30:07;;;;;;;9.30;5.97;;;19.10;99.90;;;;;;5016563;28;20897;-56
2022/07/30 00:32:34;;;;;;;9.53;6.07;;;19.10;99.90;;;;;;5019384;28;20623;-54
2022/07/30 00:35:01;;;;;;;11.60;6.77;;;19.20;99.90;;;;;;5017138;28;20260;-54
2022/07/30 00:37:28;;;;;;;14.17;6.87;;;19.10;99.90;;;;;;5018972;28;20595;-54
2022/07/30 00:39:55;;;;;;;12.40;7.87;;;18.90;99.90;;;;;;5017241;28;20201;-54
2022/07/30 00:42:25;;;;;;;8.43;6.80;;;18.90;99.90;;;;;;5019578;28;20205;-54
2022/07/30 00:44:52;;;;;;;11.77;7.43;;;19.00;99.90;;;;;;5018997;28;20193;-54
2022/07/30 00:47:19;;;;;;;10.33;7.63;;;18.90;99.90;;;;;;5024429;28;20259;-53
2022/07/30 00:49:49;;;;;;;13.57;8.00;;;18.90;99.90;;;;;;5018588;28;20631;-55
2022/07/30 00:52:16;;;;;;;14.47;8.10;;;19.10;99.90;;;;;;5020300;28;20211;-55
2022/07/30 00:54:44;;;;;;;11.90;8.23;;;19.00;99.90;;;;;;5017191;28;20287;-55
2022/07/30 00:57:10;;;;;;;11.90;7.43;;;19.00;99.90;;;;;;5018188;28;20211;-55
2022/07/30 00:59:38;;;;;;;11.00;7.97;;;19.00;99.90;;;;;;5020865;28;20642;-54
2022/07/30 01:02:05;;;;;;;13.40;8.93;;;19.00;99.90;;;;;;5015280;28;20201;-54
2022/07/30 01:04:33;;;;;;;12.47;7.97;;;18.90;99.90;;;;;;5017951;28;20201;-54
2022/07/30 01:07:00;;;;;;;12.80;8.07;;;18.90;99.90;;;;;;5017098;28;20726;-53
2022/07/30 01:09:28;;;;;;;13.17;8.40;;;18.90;99.90;;;;;;5018260;28;20312;-54
2022/07/30 01:11:55;;;;;;;8.90;7.20;;;18.70;99.90;;;;;;5018287;28;20296;-54
2022/07/30 01:14:22;;;;;;;10.97;7.40;;;18.70;99.90;;;;;;5002819;28;20762;-54
2022/07/30 01:16:53;;;;;;;8.63;7.50;;;18.60;99.90;;;;;;5017278;28;20243;-54
2022/07/30 01:19:47;;;;;;;10.37;6.87;;;18.60;99.90;;;;;;5011148;28;20244;-54
2022/07/30 01:22:28;;;;;;;13.67;7.47;;;18.70;99.90;;;;;;5020388;28;20189;-54
2022/07/30 01:25:02;;;;;;;11.70;8.03;;;18.80;99.90;;;;;;5015344;28;20205;-55
2022/07/30 01:27:44;;;;;;;11.97;7.93;;;18.70;99.90;;;;;;5017558;28;20204;-54
2022/07/30 01:30:14;;;;;;;10.20;6.80;;;18.60;99.90;;;;;;5018821;28;20668;-56
2022/07/30 01:32:44;;;;;;;11.30;7.63;;;18.60;99.90;;;;;;5013634;28;20574;-55
2022/07/30 01:35:12;;;;;;;10.13;7.30;;;18.50;99.90;;;;;;5014666;28;20228;-52
2022/07/30 01:37:43;;;;;;;10.80;6.93;;;18.50;99.90;;;;;;5026756;28;20255;-53
2022/07/30 01:40:13;;;;;;;11.80;7.10;;;18.60;99.90;;;;;;5026789;28;20778;-53
2022/07/30 01:42:42;;;;;;;12.17;7.63;;;18.50;99.90;;;;;;5023772;28;20620;-54
2022/07/30 01:45:11;;;;;;;12.40;7.63;;;18.50;99.90;;;;;;5031888;28;20205;-54
2022/07/30 01:47:41;;;;;;;12.20;7.60;;;18.40;99.90;;;;;;5013283;28;20232;-54
2022/07/30 01:50:14;;;;;;;8.87;7.83;;;18.20;99.90;;;;;;5018247;28;20299;-53
2022/07/30 01:52:43;;;;;;;10.40;7.43;;;18.30;99.90;;;;;;5022083;28;20281;-54
2022/07/30 01:55:15;;;;;;;11.93;8.37;;;18.30;99.90;;;;;;5042371;28;20256;-53
2022/07/30 01:57:47;;;;;;;13.63;8.20;;;18.40;99.90;;;;;;5015575;28;20609;-54
2022/07/30 02:00:16;;;;;;;11.37;8.10;;;18.40;99.90;;;;;;5013185;28;20193;-54
2022/07/30 02:02:43;;;;;;;12.90;8.53;;;18.30;99.90;;;;;;5014962;28;20248;-54
2022/07/30 02:05:11;;;;;;;10.83;9.23;;;18.20;99.90;;;;;;5016484;28;20288;-53
2022/07/30 02:07:50;;;;;;;16.60;10.07;;;18.30;99.90;;;;;;5018401;28;20549;-54
2022/07/30 02:10:34;;;;;;;17.40;10.67;;;18.20;99.90;;;;;;5015028;28;20220;-53
2022/07/30 02:13:05;;;;;;;16.43;9.93;;;18.10;99.90;;;;;;5015214;28;20204;-52
2022/07/30 02:15:37;;;;;;;19.70;10.60;;;18.10;99.90;;;;;;5017646;28;20271;-54
2022/07/30 02:18:15;;;;;;;12.90;10.10;;;18.00;99.90;;;;;;5012037;28;20209;-54
2022/07/30 02:20:46;;;;;;;13.27;9.97;;;18.10;99.90;;;;;;5017261;28;20209;-53
2022/07/30 02:23:17;;;;;;;14.60;10.37;;;18.10;99.90;;;;;;5017519;28;21965;-53
2022/07/30 02:25:50;;;;;;;12.20;9.80;;;18.20;99.90;;;;;;5011560;28;20209;-54
2022/07/30 02:28:20;;;;;;;13.93;9.80;;;18.10;99.90;;;;;;5016511;28;20705;-54
2022/07/30 02:30:52;;;;;;;11.97;10.03;;;18.00;99.90;;;;;;5014103;28;20736;-54
2022/07/30 02:33:26;;;;;;;18.30;10.57;;;18.10;99.90;;;;;;5016157;28;21503;-55
2022/07/30 02:35:54;;;;;;;12.00;9.50;;;18.00;99.90;;;;;;5015788;28;20671;-54
2022/07/30 02:38:24;;;;;;;19.43;10.73;;;18.10;99.90;;;;;;5017449;28;20653;-54
2022/07/30 02:40:53;;;;;;;16.27;9.37;;;18.20;99.90;;;;;;5015315;28;20668;-54
2022/07/30 02:43:24;;;;;;;13.40;9.90;;;18.10;99.90;;;;;;5016375;28;20201;-53
2022/07/30 02:45:52;;;;;;;13.67;10.30;;;18.10;99.90;;;;;;5008932;28;20205;-53
2022/07/30 02:48:22;;;;;;;12.57;9.43;;;18.00;99.90;;;;;;5011218;28;20825;-53
2022/07/30 02:51:02;;;;;;;12.10;9.20;;;18.00;99.90;;;;;;5017096;28;20561;-54
2022/07/30 02:53:31;;;;;;;12.57;9.63;;;17.90;99.90;;;;;;5017894;28;20292;-56
2022/07/30 02:55:59;;;;;;;13.10;10.40;;;17.90;99.90;;;;;;5013564;28;20229;-54
2022/07/30 02:58:27;;;;;;;15.20;10.70;;;17.90;99.90;;;;;;5015356;28;20232;-55
2022/07/30 03:00:59;;;;;;;14.67;11.20;;;17.90;99.90;;;;;;5028428;28;20344;-54
2022/07/30 03:03:30;;;;;;;12.77;10.27;;;17.80;99.90;;;;;;5015982;28;20212;-54
2022/07/30 03:05:59;;;;;;;11.40;9.87;;;17.50;99.90;;;;;;5013675;28;20240;-53
2022/07/30 03:08:27;;;;;;;11.77;9.20;;;17.20;99.90;;;;;;5011186;28;20793;-56
2022/07/30 03:10:58;;;;;;;10.37;9.10;;;17.20;99.90;;;;;;5033017;28;20244;-53
2022/07/30 03:13:26;;;;;;;11.17;9.20;;;17.20;99.90;;;;;;5015610;28;20243;-54
2022/07/30 03:15:55;;;;;;;17.40;9.80;;;17.20;99.90;;;;;;5014181;28;20219;-55
2022/07/30 03:18:29;;;;;;;10.83;9.67;;;17.20;99.90;;;;;;5014732;28;20196;-56
2022/07/30 03:20:59;;;;;;;13.47;9.80;;;17.30;99.90;;;;;;5014277;28;20742;-54
2022/07/30 03:23:27;;;;;;;13.10;9.37;;;17.20;99.90;;;;;;5017709;28;20217;-52
2022/07/30 03:25:59;;;;;;;16.23;10.13;;;17.00;99.90;;;;;;5015311;28;20240;-54
2022/07/30 03:28:38;;;;;;;10.80;9.07;;;17.00;99.90;;;;;;5012636;28;20287;-54
2022/07/30 03:31:07;;;;;;;11.93;10.10;;;17.00;99.90;;;;;;5009495;28;20299;-53
2022/07/30 03:33:35;;;;;;;11.37;10.17;;;16.80;99.90;;;;;;5030779;28;20715;-54
2022/07/30 03:36:06;;;;;;;14.83;10.43;;;17.00;99.90;;;;;;5013426;28;20231;-53
2022/07/30 03:38:41;;;;;;;13.30;9.97;;;17.10;99.90;;;;;;5013989;28;20208;-53
2022/07/30 03:41:09;;;;;;;14.60;10.23;;;17.20;99.90;;;;;;5019681;28;20254;-53
2022/07/30 03:43:38;;;;;;;14.13;9.37;;;17.30;99.90;;;;;;5031393;28;20204;-56
2022/07/30 03:46:08;;;;;;;14.93;10.43;;;17.40;99.90;;;;;;5018981;28;20255;-54
2022/07/30 03:48:37;;;;;;;11.10;9.77;;;17.40;99.90;;;;;;5002310;28;20263;-53
2022/07/30 03:51:08;;;;;;;14.13;9.80;;;17.40;99.90;;;;;;5018788;28;20568;-54
2022/07/30 03:53:38;;;;;;;12.07;9.60;;;17.40;99.90;;;;;;5020108;28;20208;-54
2022/07/30 03:56:06;;;;;;;13.43;10.37;;;17.10;99.90;;;;;;5018161;28;20225;-54
2022/07/30 03:58:35;;;;;;;10.57;9.37;;;17.10;99.90;;;;;;5017891;28;20201;-54
2022/07/30 04:01:03;;;;;;;12.37;9.27;;;16.90;99.90;;;;;;5017195;28;20206;-54
2022/07/30 04:03:32;;;;;;;10.30;9.20;;;16.80;99.90;;;;;;5017135;28;20228;-53
2022/07/30 04:06:00;;;;;;;9.97;8.23;;;16.50;99.90;;;;;;5015714;28;20215;-54
2022/07/30 04:08:27;;;;;;;12.20;8.50;;;16.40;99.90;;;;;;5014227;28;20209;-54
2022/07/30 04:10:55;;;;;;;11.00;8.83;;;16.30;99.90;;;;;;5014576;28;20263;-54
2022/07/30 04:13:22;;;;;;;12.67;9.23;;;16.20;99.90;;;;;;5019837;28;20294;-54
2022/07/30 04:16:00;;;;;;;9.57;8.43;;;16.10;99.90;;;;;;5014654;28;20685;-53
2022/07/30 04:18:50;;;;;;;9.57;8.20;;;16.00;99.90;;;;;;5018732;28;20202;-53
2022/07/30 04:21:19;;;;;;;10.83;8.53;;;16.00;99.90;;;;;;5019893;28;20211;-54
2022/07/30 04:23:48;;;;;;;9.47;8.47;;;15.90;99.90;;;;;;5018080;28;20253;-53
2022/07/30 04:26:33;;;;;;;9.10;8.20;;;15.80;99.90;;;;;;5019183;28;20218;-54
2022/07/30 04:29:01;;;;;;;10.87;7.87;;;15.90;99.90;;;;;;5001990;28;20201;-53
2022/07/30 04:31:34;;;;;;;9.07;8.17;;;16.00;99.90;;;;;;5016014;28;20283;-54
2022/07/30 04:34:06;;;;;;;8.90;8.00;;;15.90;99.90;;;;;;5017883;28;20231;-52
2022/07/30 04:36:38;;;;;;;11.33;9.43;;;15.70;99.90;;;;;;5014445;28;20209;-54
2022/07/30 04:39:05;;;;;;;13.33;9.30;;;15.60;99.90;;;;;;5014293;28;20645;-54
2022/07/30 04:41:33;;;;;;;10.37;9.17;;;15.60;99.90;;;;;;5017746;28;20542;-54
2022/07/30 04:44:15;;;;;;;10.43;9.20;;;15.60;99.90;;;;;;5018186;28;20652;-53
2022/07/30 04:46:42;;;;;;;13.50;10.07;;;15.60;99.90;;;;;;5015830;28;20201;-53
2022/07/30 04:49:11;;;;;;;12.13;8.33;;;15.70;99.90;;;;;;5016198;28;20335;-53
2022/07/30 04:51:39;;;;;;;11.60;8.53;;;15.90;99.90;;;;;;5016965;28;20212;-54
2022/07/30 04:54:09;;;;;;;10.47;9.07;;;16.00;99.90;;;;;;5015860;28;20231;-54
2022/07/30 04:56:45;;;;;;;11.83;9.13;;;16.10;99.90;;;;;;5017991;28;20622;-52
2022/07/30 04:59:22;;;;;;;9.40;8.40;;;16.20;99.90;;;;;;5019552;28;20204;-54
2022/07/30 05:01:51;;;;;;;9.77;8.77;;;15.90;99.90;;;;;;5015792;28;20198;-54
2022/07/30 05:04:19;;;;;;;13.57;9.33;;;15.80;99.90;;;;;;5015991;28;20209;-53
2022/07/30 05:06:50;;;;;;;10.60;9.20;;;15.70;99.90;;;;;;5018435;28;20212;-54
2022/07/30 05:09:17;;;;;;;10.83;9.40;;;15.70;99.90;;;;;;5016481;28;20243;-53
2022/07/30 05:11:52;;;;;;;9.80;8.80;;;15.70;99.90;;;;;;5032261;28;20219;-54
2022/07/30 05:14:21;;;;;;;13.03;10.17;;;15.60;99.90;;;;;;5015130;28;20204;-53
2022/07/30 05:16:50;;;;;;;10.87;9.77;;;15.60;99.90;;;;;;5015071;28;20213;-54
2022/07/30 05:19:18;;;;;;;15.60;9.87;;;15.70;99.90;;;;;;5017882;28;20301;-53
2022/07/30 05:21:46;;;;;;;16.43;11.10;;;15.80;99.90;;;;;;5018771;28;20207;-54
2022/07/30 05:24:16;;;;;;;12.07;9.67;;;16.00;99.90;;;;;;5015629;28;20235;-54
2022/07/30 05:26:44;;;;;;;11.97;10.33;;;16.10;99.90;;;;;;5016893;28;20240;-53
2022/07/30 05:29:11;;;;;;;12.07;10.10;;;16.10;99.90;;;;;;5017823;28;20289;-54
2022/07/30 05:31:46;;;;;;;13.63;10.73;;;16.00;99.90;;;;;;5014895;28;20208;-53
2022/07/30 05:34:13;;;;;;;15.23;11.03;;;16.10;99.90;;;;;;5012044;28;20219;-54
2022/07/30 05:36:43;;;;;;;14.13;10.27;;;16.10;99.90;;;;;;5016236;28;20231;-53
2022/07/30 05:39:11;;;;;;;14.50;10.63;;;16.30;99.90;;;;;;5017907;28;20220;-54
2022/07/30 05:41:38;;;;;;;13.50;10.63;;;16.40;99.90;;;;;;5003624;28;20206;-54
2022/07/30 05:44:08;;;;;;;14.57;9.97;;;16.40;99.90;;;;;;5018543;28;20277;-53
2022/07/30 05:46:35;;;;;;;16.17;9.90;;;16.60;99.90;;;;;;5044175;28;20752;-54
2022/07/30 05:49:02;;;;;;;12.33;9.33;;;16.70;99.90;;;;;;5012782;28;20242;-54
2022/07/30 05:51:29;;;;;;;11.47;8.87;;;16.80;99.90;;;;;;5016600;28;20308;-56
2022/07/30 05:53:56;;;;;;;13.90;9.00;;;17.00;99.90;;;;;;5015087;28;20242;-54
2022/07/30 05:56:23;;;;;;;8.90;8.00;;;17.10;99.90;;;;;;5020713;28;20274;-53
2022/07/30 05:58:50;;;;;;;10.77;7.40;;;17.30;99.90;;;;;;5015759;28;20225;-53
2022/07/30 06:01:17;;;;;;;15.10;8.23;;;17.30;99.90;;;;;;5005727;28;20228;-54
2022/07/30 06:03:56;;;;;;;7.80;6.97;;;17.50;99.90;;;;;;5012369;28;20205;-53
2022/07/30 06:06:29;;;;;;;11.10;7.17;;;17.70;99.90;;;;;;5016360;28;20209;-54
2022/07/30 06:08:57;;;;;;;8.50;5.53;;;17.80;99.90;;;;;;5031674;28;21031;-54
2022/07/30 06:11:24;;;;;;;9.07;5.30;;;17.80;99.90;;;;;;4998085;28;20660;-54
2022/07/30 06:13:53;;;;;;;7.87;4.93;;;17.80;99.90;;;;;;5017297;28;20206;-54
2022/07/30 06:16:21;;;;;;;5.77;4.80;;;17.90;99.90;;;;;;5014082;28;20212;-54
2022/07/30 06:18:48;;;;;;;7.50;4.67;;;18.00;99.90;;;;;;5016609;28;20247;-54
2022/07/30 06:21:20;;;;;;;9.40;5.30;;;18.00;99.90;;;;;;5016681;28;20229;-54
2022/07/30 06:24:12;;;;;;;5.47;4.20;;;18.00;99.90;;;;;;5011471;28;20278;-53
2022/07/30 06:26:40;;;;;;;5.73;4.00;;;18.20;99.90;;;;;;5013915;28;20306;-54
2022/07/30 06:29:07;;;;;;;6.63;4.47;;;18.20;99.90;;;;;;5016360;28;20237;-54
2022/07/30 06:31:37;;;;;;;9.40;4.10;;;18.10;99.90;;;;;;5015183;28;20204;-54
2022/07/30 06:34:04;;;;;;;8.53;5.40;;;18.20;99.90;;;;;;5021584;28;20653;-55
2022/07/30 06:36:31;;;;;;;7.30;4.33;;;18.30;99.90;;;;;;5014618;28;20217;-56
2022/07/30 06:38:58;;;;;;;4.50;3.97;;;18.40;99.90;;;;;;5013980;28;20209;-54
2022/07/30 06:41:25;;;;;;;5.70;3.80;;;18.20;99.90;;;;;;5009545;28;20266;-55
2022/07/30 06:43:52;;;;;;;8.57;4.83;;;18.40;99.90;;;;;;5012263;28;20651;-54
2022/07/30 06:46:19;;;;;;;4.70;3.07;;;18.60;99.90;;;;;;5013064;28;20214;-55
2022/07/30 06:48:46;;;;;;;6.10;3.47;;;18.80;99.90;;;;;;5009804;28;20312;-54
2022/07/30 06:51:13;;;;;;;5.07;3.50;;;18.80;99.90;;;;;;5009553;28;20263;-54
2022/07/30 06:53:44;;;;;;;7.97;3.10;;;19.00;99.90;;;;;;5023008;28;20197;-54
2022/07/30 06:56:12;;;;;;;5.73;3.10;;;19.20;99.90;;;;;;5006136;28;21543;-54
2022/07/30 06:58:39;;;;;;;6.27;3.10;;;19.20;99.90;;;;;;4649227;28;10000420;-53
2022/07/30 07:01:06;;;;;;;6.53;2.80;;;19.30;99.90;;;;;;5004686;28;20202;-53
2022/07/30 07:03:37;;;;;;;5.97;2.87;;;19.50;99.90;;;;;;5006991;28;20197;-54
2022/07/30 07:06:06;;;;;;;4.67;2.20;;;19.80;99.90;;;;;;5024023;28;20662;-53
2022/07/30 07:08:37;;;;;;;3.90;2.50;;;19.90;99.90;;;;;;5011396;28;20211;-54
2022/07/30 07:11:05;;;;;;;5.70;2.60;;;19.70;99.90;;;;;;5008986;28;20862;-53
2022/07/30 07:13:32;;;;;;;6.30;2.87;;;19.90;99.90;;;;;;5011806;28;20220;-54
2022/07/30 07:15:59;;;;;;;5.17;2.50;;;19.70;99.90;;;;;;5007022;28;20217;-54
2022/07/30 07:18:26;;;;;;;6.83;2.63;;;19.80;99.90;;;;;;5012072;28;20235;-53
2022/07/30 07:20:53;;;;;;;4.67;2.90;;;19.40;99.90;;;;;;5008612;28;20205;-53
2022/07/30 07:23:20;;;;;;;5.10;2.70;;;19.50;99.90;;;;;;5010526;28;20802;-54
2022/07/30 07:25:47;;;;;;;3.07;2.73;;;19.70;99.90;;;;;;5009624;28;20206;-54
2022/07/30 07:28:14;;;;;;;5.17;2.67;;;19.40;99.90;;;;;;5015851;28;20208;-53
2022/07/30 07:30:42;;;;;;;5.83;2.40;;;19.60;99.90;;;;;;5007482;28;20209;-53
2022/07/30 07:33:09;;;;;;;4.37;2.37;;;19.90;99.90;;;;;;5006481;28;20259;-54
2022/07/30 07:35:37;;;;;;;4.63;2.30;;;19.90;99.90;;;;;;5014346;28;20216;-54
2022/07/30 07:38:16;;;;;;;3.73;1.87;;;20.10;99.90;;;;;;5008419;28;20299;-54
2022/07/30 07:40:44;;;;;;;6.77;2.50;;;20.10;99.90;;;;;;5010187;28;20197;-53
2022/07/30 07:43:11;;;;;;;4.90;2.00;;;20.30;99.90;;;;;;5007515;28;20202;-53
2022/07/30 07:45:38;;;;;;;4.27;2.10;;;20.50;99.90;;;;;;5007523;28;20202;-53
2022/07/30 07:48:06;;;;;;;8.70;2.30;;;20.80;99.90;;;;;;5004789;28;20322;-53
2022/07/30 07:50:33;;;;;;;4.50;2.17;;;21.10;99.90;;;;;;5005150;28;20237;-56
2022/07/30 07:53:00;;;;;;;4.13;1.37;;;21.10;99.90;;;;;;5014968;28;20240;-54
2022/07/30 07:55:28;;;;;;;5.73;2.23;;;21.50;99.90;;;;;;5013457;28;20587;-54
2022/07/30 07:57:59;;;;;;;6.20;2.03;;;21.20;99.90;;;;;;5006775;28;20204;-55
2022/07/30 08:00:27;;;;;;;3.13;1.70;;;21.60;99.90;;;;;;5008726;28;20317;-53
2022/07/30 08:02:55;;;;;;;3.23;2.00;;;21.60;99.90;;;;;;5009456;28;20259;-54
2022/07/30 08:05:22;;;;;;;2.40;1.50;;;21.70;99.90;;;;;;5007203;28;20232;-54
2022/07/30 08:07:49;;;;;;;3.70;2.30;;;21.90;99.90;;;;;;5009289;28;20204;-53
2022/07/30 08:10:19;;;;;;;3.60;1.63;;;22.10;99.90;;;;;;5014956;28;20197;-54
2022/07/30 08:12:46;;;;;;;5.00;2.13;;;21.60;99.90;;;;;;5014417;28;20824;-53
2022/07/30 08:15:13;;;;;;;5.27;1.47;;;22.10;99.90;;;;;;5013472;28;20336;-54
2022/07/30 08:17:46;;;;;;;4.47;2.07;;;22.20;99.90;;;;;;5027129;28;20212;-54
2022/07/30 08:20:15;;;;;;;8.83;2.23;;;22.10;99.90;;;;;;5014944;28;20197;-54
2022/07/30 08:22:42;;;;;;;3.00;1.47;;;22.30;99.90;;;;;;5014080;28;20327;-53
2022/07/30 08:25:10;;;;;;;2.50;1.57;;;22.40;99.90;;;;;;5012037;28;20212;-54
2022/07/30 08:27:48;;;;;;;3.70;1.67;;;22.10;99.90;;;;;;5017900;28;20609;-53
2022/07/30 08:30:19;;;;;;;4.10;1.33;;;22.50;99.90;;;;;;5016480;28;20607;-54
2022/07/30 08:32:46;;;;;;;2.87;1.43;;;22.30;99.90;;;;;;5015133;28;20207;-54
2022/07/30 08:35:13;;;;;;;4.27;1.67;;;22.80;99.90;;;;;;5020383;28;20230;-53
2022/07/30 08:37:41;;;;;;;4.30;1.30;;;23.40;99.90;;;;;;5018650;28;20208;-54
2022/07/30 08:40:09;;;;;;;3.17;1.70;;;23.50;99.90;;;;;;5012594;28;20390;-54
2022/07/30 08:42:36;;;;;;;2.83;1.30;;;23.60;99.90;;;;;;4999064;28;20811;-55
2022/07/30 08:45:05;;;;;;;2.10;1.40;;;23.40;99.90;;;;;;5012402;28;20196;-53
2022/07/30 08:47:33;;;;;;;3.27;1.40;;;23.10;99.90;;;;;;5012229;28;20208;-54
2022/07/30 08:50:03;;;;;;;3.40;1.60;;;23.00;99.90;;;;;;5017207;28;20252;-54
2022/07/30 08:52:41;;;;;;;2.65;1.30;;;22.90;99.90;;;;;;5017258;28;20486;-55
2022/07/30 08:55:08;;;;;;;4.97;1.93;;;24.30;99.90;;;;;;5012752;28;20716;-56
2022/07/30 08:57:36;;;;;;;2.03;1.30;;;25.40;99.90;;;;;;5013823;28;20622;-57
2022/07/30 09:00:06;;;;;;;3.47;1.37;;;25.30;99.90;;;;;;5015203;28;20201;-55
2022/07/30 09:02:33;;;;;;;2.47;1.10;;;25.10;99.90;;;;;;5016573;28;20873;-57
2022/07/30 09:05:00;;;;;;;1.97;1.00;;;24.80;99.90;;;;;;5016180;28;20689;-56
2022/07/30 09:07:27;;;;;;;3.63;1.47;;;26.80;99.90;;;;;;5015947;28;20567;-54
2022/07/30 09:09:56;;;;;;;2.37;1.33;;;26.70;99.90;;;;;;5015651;28;20635;-55
2022/07/30 09:12:37;;;;;;;2.77;1.00;;;26.80;99.90;;;;;;5016296;28;20285;-55
2022/07/30 09:15:06;;;;;;;1.83;1.00;;;28.20;99.90;;;;;;5014304;28;20228;-55
2022/07/30 09:17:52;;;;;;;1.95;0.93;;;28.80;99.90;;;;;;5012055;28;20213;-55
2022/07/30 09:20:23;;;;;;;3.05;1.00;;;28.50;99.90;;;;;;5019208;28;20197;-55
2022/07/30 09:22:53;;;;;;;2.30;1.20;;;27.30;99.90;;;;;;5018404;28;20209;-55
2022/07/30 09:25:41;;;;;;;3.78;1.20;;;28.20;99.90;;;;;;5017719;28;20196;-57
2022/07/30 09:28:09;;;;;;;2.15;0.85;;;27.80;99.90;;;;;;5016696;28;20399;-56
2022/07/30 09:30:52;;;;;;;3.25;1.30;;;28.80;99.90;;;;;;5018116;28;20733;-55
2022/07/30 09:33:32;;;;;;;4.15;1.25;;;28.90;99.90;;;;;;5011599;28;20634;-57
2022/07/30 09:36:00;;;;;;;5.03;1.17;;;27.90;99.90;;;;;;5017999;28;20714;-57
2022/07/30 09:38:27;;;;;;;1.90;1.33;;;27.40;99.90;;;;;;5014734;28;20279;-55
2022/07/30 09:40:56;;;;;;;1.70;1.13;;;26.40;99.90;;;;;;5014193;28;20202;-56
2022/07/30 09:43:24;;;;;;;2.05;1.23;;;25.60;99.90;;;;;;5017237;28;20204;-55
2022/07/30 09:46:00;;;;;;;4.45;1.73;;;25.20;99.90;;;;;;5018480;28;20617;-55
2022/07/30 09:48:27;;;;;;;1.75;1.40;;;25.90;99.90;;;;;;5018259;28;20232;-57
2022/07/30 09:50:54;;;;;;;3.03;1.45;;;26.20;99.90;;;;;;5019167;28;20229;-57
2022/07/30 09:53:23;;;;;;;3.05;1.00;;;27.30;99.90;;;;;;5013873;28;20232;-55
2022/07/30 09:55:51;;;;;;;3.22;1.50;;;27.50;99.90;;;;;;5013127;28;20292;-56
2022/07/30 09:58:18;;;;;;;6.43;1.40;;;26.60;99.90;;;;;;5015395;28;20196;-55
2022/07/30 10:00:57;;;;;;;2.42;1.20;;;25.50;99.90;;;;;;5013290;28;20901;-56
2022/07/30 10:03:26;;;;;;;3.40;1.42;;;26.50;99.90;;;;;;5009832;28;20288;-54
2022/07/30 10:06:08;;;;;;;2.97;1.52;;;26.10;99.90;;;;;;5015525;28;20728;-57
2022/07/30 10:08:40;;;;;;;3.45;1.23;;;26.20;99.90;;;;;;5012530;28;20669;-55
2022/07/30 10:11:15;;;;;;;3.25;1.40;;;26.00;99.90;;;;;;5011452;28;20202;-53
2022/07/30 10:13:59;;;;;;;2.47;1.10;;;26.10;99.90;;;;;;5010616;28;20262;-57
2022/07/30 10:16:28;;;;;;;3.65;1.23;;;25.60;99.90;;;;;;5004415;28;20244;-56
2022/07/30 10:18:58;;;;;;;2.05;1.10;;;25.90;99.90;;;;;;5011229;28;20201;-56
2022/07/30 10:21:27;;;;;;;1.15;1.00;;;25.70;99.90;;;;;;5013974;28;20637;-56
2022/07/30 10:23:58;;;;;;;2.95;1.10;;;25.70;99.90;;;;;;5004344;28;20218;-56
2022/07/30 10:26:30;;;;;;;2.43;1.20;;;26.20;99.90;;;;;;5009389;28;20263;-57
2022/07/30 10:28:58;;;;;;;2.13;1.10;;;25.90;99.90;;;;;;5002324;28;20657;-55
2022/07/30 10:31:25;;;;;;;7.95;2.80;;;25.70;99.90;;;;;;5005448;28;20333;-57
2022/07/30 10:34:13;;;;;;;6.28;1.83;;;25.70;99.90;;;;;;5008477;28;20331;-55
2022/07/30 10:36:43;;;;;;;2.22;1.10;;;25.50;99.90;;;;;;5006026;28;20231;-56
2022/07/30 10:39:17;;;;;;;3.17;1.10;;;25.00;99.90;;;;;;5008395;28;20299;-56
2022/07/30 10:42:06;;;;;;;3.27;1.30;;;25.20;99.90;;;;;;5011293;28;20196;-56
2022/07/30 10:44:41;;;;;;;2.57;1.40;;;25.40;99.90;;;;;;5010329;28;20209;-55
2022/07/30 10:47:12;;;;;;;1.40;1.00;;;25.40;99.90;;;;;;5011869;28;20323;-56
2022/07/30 10:49:40;;;;;;;3.80;1.50;;;25.60;99.90;;;;;;5011314;28;20247;-56
2022/07/30 10:52:09;;;;;;;2.70;1.30;;;25.30;99.90;;;;;;5042720;28;20206;-55
2022/07/30 10:54:46;;;;;;;3.80;1.43;;;25.30;99.90;;;;;;4997446;28;20282;-55
2022/07/30 10:57:14;;;;;;;4.00;1.60;;;25.50;99.90;;;;;;5011869;28;20294;-57
2022/07/30 11:00:01;;;;;;;2.93;1.00;;;25.70;99.90;;;;;;5010325;28;20197;-55
2022/07/30 11:02:33;;;;;;;3.55;1.40;;;25.70;99.90;;;;;;5023933;28;20198;-56
2022/07/30 11:05:16;;;;;;;1.77;0.83;;;25.40;99.90;;;;;;5009961;28;20282;-56
2022/07/30 11:07:45;;;;;;;3.00;1.33;;;25.90;99.90;;;;;;5028764;28;20282;-56
2022/07/30 11:10:39;;;;;;;1.97;0.93;;;26.20;99.90;;;;;;5010945;28;20205;-57
2022/07/30 11:13:07;;;;;;;2.50;1.50;;;26.90;99.90;;;;;;5012319;28;20284;-56
2022/07/30 11:15:59;;;;;;;2.22;1.48;;;26.40;99.90;;;;;;5007427;28;20634;-55
2022/07/30 11:18:26;;;;;;;3.13;1.27;;;26.50;99.90;;;;;;5023900;28;20205;-56
2022/07/30 11:21:17;;;;;;;2.03;1.50;;;26.70;99.90;;;;;;5014486;28;20222;-58
2022/07/30 11:23:48;;;;;;;2.53;1.13;;;27.80;99.90;;;;;;5019292;28;20236;-55
2022/07/30 11:26:37;;;;;;;2.60;1.10;;;27.40;99.90;;;;;;5013011;28;20688;-56
2022/07/30 11:29:27;;;;;;;3.25;1.65;;;27.90;99.90;;;;;;5009888;28;20216;-56
2022/07/30 11:32:26;;;;;;;2.85;1.17;;;28.80;99.90;;;;;;5009235;28;20240;-56
2022/07/30 11:35:13;;;;;;;3.70;1.48;;;29.90;99.90;;;;;;5007731;28;20212;-56
2022/07/30 11:38:00;;;;;;;3.03;1.15;;;28.70;99.90;;;;;;5009136;28;20331;-55
2022/07/30 11:40:32;;;;;;;3.25;1.55;;;28.60;99.90;;;;;;5009567;28;20204;-56
2022/07/30 11:43:24;;;;;;;2.33;1.30;;;28.60;99.90;;;;;;5013769;28;20231;-57
2022/07/30 11:46:13;;;;;;;5.15;1.20;;;28.60;99.90;;;;;;5012395;28;20927;-56
2022/07/30 11:48:53;;;;;;;1.50;1.40;;;28.50;99.90;;;;;;5012631;28;20559;-57
2022/07/30 11:51:20;;;;;;;3.60;1.63;;;28.90;99.90;;;;;;5009851;28;20208;-57
2022/07/30 11:54:05;;;;;;;5.65;1.40;;;29.20;99.90;;;;;;5007266;28;20261;-56
2022/07/30 11:56:32;;;;;;;3.38;1.50;;;28.70;99.90;;;;;;5010293;28;20213;-56
2022/07/30 11:59:08;;;;;;;5.28;1.77;;;28.20;99.90;;;;;;5002590;28;21411;-55
2022/07/30 12:01:35;;;;;;;5.25;1.42;;;27.40;99.90;;;;;;5038225;28;20664;-56
2022/07/30 12:04:07;;;;;;;3.55;1.08;;;27.10;99.90;;;;;;5009708;28;20197;-57
2022/07/30 12:06:46;;;;;;;2.05;1.70;;;27.40;99.90;;;;;;5009949;28;20268;-57
2022/07/30 12:09:21;;;;;;;2.97;1.27;;;26.70;99.90;;;;;;5006745;28;20267;-55
2022/07/30 12:11:48;;;;;;;5.23;1.60;;;26.60;99.90;;;;;;5014479;28;20212;-55
2022/07/30 12:14:15;;;;;;;3.40;1.17;;;26.20;99.90;;;;;;5016208;28;20294;-55
2022/07/30 12:16:49;;;;;;;4.07;1.50;;;26.30;99.90;;;;;;5012831;28;20672;-55
2022/07/30 12:19:16;;;;;;;2.73;1.40;;;26.40;99.90;;;;;;5015013;28;20205;-55
2022/07/30 12:21:43;;;;;;;3.47;1.60;;;26.60;99.90;;;;;;5015310;28;20201;-55
2022/07/30 12:24:10;;;;;;;6.70;1.53;;;26.60;99.90;;;;;;5014063;28;20204;-55
2022/07/30 12:26:37;;;;;;;4.10;1.53;;;26.60;99.90;;;;;;5015132;28;20549;-57
2022/07/30 12:29:09;;;;;;;2.47;1.57;;;26.20;99.90;;;;;;5014356;28;20237;-55
2022/07/30 12:31:36;;;;;;;3.17;1.73;;;25.80;99.90;;;;;;5010965;28;20648;-54
2022/07/30 12:34:22;;;;;;;2.03;1.30;;;25.70;99.90;;;;;;5014602;28;22671;-55
2022/07/30 12:36:50;;;;;;;4.77;1.97;;;26.00;99.90;;;;;;5016039;28;20240;-55
2022/07/30 12:39:22;;;;;;;4.17;1.53;;;26.60;99.90;;;;;;4997973;28;20205;-57
2022/07/30 12:41:51;;;;;;;3.70;2.47;;;27.40;99.90;;;;;;5009814;28;21534;-55
2022/07/30 12:44:38;;;;;;;2.53;1.30;;;27.60;99.90;;;;;;5008460;28;20335;-55
2022/07/30 12:47:17;;;;;;;4.53;1.60;;;27.00;99.90;;;;;;5012885;28;20910;-55
2022/07/30 12:49:44;;;;;;;8.23;1.43;;;26.60;99.90;;;;;;5012239;28;20679;-54
2022/07/30 12:52:27;;;;;;;2.30;1.63;;;27.00;99.90;;;;;;5017402;28;20237;-56
2022/07/30 12:55:10;;;;;;;4.80;1.60;;;27.30;99.90;;;;;;5009840;28;20221;-55
2022/07/30 12:58:03;;;;;;;3.77;1.70;;;26.90;99.90;;;;;;5027827;28;20702;-55
2022/07/30 13:00:50;;;;;;;3.43;1.27;;;27.70;99.90;;;;;;5011856;28;20205;-55